sensor_id;sensor_type;location;lat;lon;timestamp;P1;durP1;ratioP1;P2;durP2;ratioP2
13816;SDS011;6979;52.116;5.286;2023-05-07T00:00:59;9.17;;;8.47;;
13816;SDS011;6979;52.116;5.286;2023-05-07T00:03:25;8.27;;;7.67;;
13816;SDS011;6979;52.116;5.286;2023-05-07T00:05:52;8.07;;;7.47;;
13816;SDS011;6979;52.116;5.286;2023-05-07T00:08:22;7.90;;;7.40;;
13816;SDS011;6979;52.116;5.286;2023-05-07T00:10:49;8.47;;;7.87;;
13816;SDS011;6979;52.116;5.286;2023-05-07T00:13:15;8.93;;;8.17;;
13816;SDS011;6979;52.116;5.286;2023-05-07T00:15:42;9.00;;;8.30;;
13816;SDS011;6979;52.116;5.286;2023-05-07T00:18:11;7.93;;;7.40;;
13816;SDS011;6979;52.116;5.286;2023-05-07T00:20:37;7.03;;;6.53;;
13816;SDS011;6979;52.116;5.286;2023-05-07T00:23:07;8.30;;;7.70;;
13816;SDS011;6979;52.116;5.286;2023-05-07T00:25:38;7.97;;;7.47;;
13816;SDS011;6979;52.116;5.286;2023-05-07T00:28:05;7.80;;;7.27;;
13816;SDS011;6979;52.116;5.286;2023-05-07T00:30:32;7.83;;;7.23;;
13816;SDS011;6979;52.116;5.286;2023-05-07T00:32:59;8.07;;;7.57;;
13816;SDS011;6979;52.116;5.286;2023-05-07T00:35:29;7.80;;;7.30;;
13816;SDS011;6979;52.116;5.286;2023-05-07T00:37:57;7.93;;;7.43;;
13816;SDS011;6979;52.116;5.286;2023-05-07T00:40:24;7.50;;;7.03;;
13816;SDS011;6979;52.116;5.286;2023-05-07T00:42:51;7.87;;;7.37;;
13816;SDS011;6979;52.116;5.286;2023-05-07T00:45:21;7.40;;;6.80;;
13816;SDS011;6979;52.116;5.286;2023-05-07T00:47:54;6.83;;;6.43;;
13816;SDS011;6979;52.116;5.286;2023-05-07T00:50:21;6.83;;;6.43;;
13816;SDS011;6979;52.116;5.286;2023-05-07T00:52:49;6.93;;;6.40;;
13816;SDS011;6979;52.116;5.286;2023-05-07T00:55:17;7.43;;;7.00;;
13816;SDS011;6979;52.116;5.286;2023-05-07T00:57:44;7.60;;;7.03;;
13816;SDS011;6979;52.116;5.286;2023-05-07T01:00:11;7.03;;;6.53;;
13816;SDS011;6979;52.116;5.286;2023-05-07T01:02:39;6.33;;;5.97;;
13816;SDS011;6979;52.116;5.286;2023-05-07T01:05:09;7.13;;;6.53;;
13816;SDS011;6979;52.116;5.286;2023-05-07T01:07:37;7.13;;;6.43;;
13816;SDS011;6979;52.116;5.286;2023-05-07T01:10:07;6.67;;;6.27;;
13816;SDS011;6979;52.116;5.286;2023-05-07T01:12:41;6.50;;;6.10;;
13816;SDS011;6979;52.116;5.286;2023-05-07T01:15:09;6.13;;;5.67;;
13816;SDS011;6979;52.116;5.286;2023-05-07T01:17:40;7.03;;;6.53;;
13816;SDS011;6979;52.116;5.286;2023-05-07T01:20:14;6.57;;;6.07;;
13816;SDS011;6979;52.116;5.286;2023-05-07T01:22:43;6.60;;;6.20;;
13816;SDS011;6979;52.116;5.286;2023-05-07T01:25:11;6.57;;;6.17;;
13816;SDS011;6979;52.116;5.286;2023-05-07T01:27:46;6.93;;;6.33;;
13816;SDS011;6979;52.116;5.286;2023-05-07T01:30:13;6.70;;;6.23;;
13816;SDS011;6979;52.116;5.286;2023-05-07T01:32:42;7.10;;;6.70;;
13816;SDS011;6979;52.116;5.286;2023-05-07T01:35:14;7.73;;;7.13;;
13816;SDS011;6979;52.116;5.286;2023-05-07T01:37:45;7.00;;;6.50;;
13816;SDS011;6979;52.116;5.286;2023-05-07T01:40:13;7.23;;;6.60;;
13816;SDS011;6979;52.116;5.286;2023-05-07T01:42:41;6.80;;;6.30;;
13816;SDS011;6979;52.116;5.286;2023-05-07T01:45:10;7.17;;;6.67;;
13816;SDS011;6979;52.116;5.286;2023-05-07T01:47:37;7.60;;;6.90;;
13816;SDS011;6979;52.116;5.286;2023-05-07T01:50:05;7.23;;;6.73;;
13816;SDS011;6979;52.116;5.286;2023-05-07T01:52:34;7.90;;;7.40;;
13816;SDS011;6979;52.116;5.286;2023-05-07T01:55:04;8.27;;;7.67;;
13816;SDS011;6979;52.116;5.286;2023-05-07T01:57:32;6.67;;;6.17;;
13816;SDS011;6979;52.116;5.286;2023-05-07T01:59:59;7.73;;;7.13;;
13816;SDS011;6979;52.116;5.286;2023-05-07T02:02:28;7.10;;;6.70;;
13816;SDS011;6979;52.116;5.286;2023-05-07T02:05:03;7.47;;;6.87;;
13816;SDS011;6979;52.116;5.286;2023-05-07T02:07:31;6.77;;;6.33;;
13816;SDS011;6979;52.116;5.286;2023-05-07T02:09:58;7.27;;;6.83;;
13816;SDS011;6979;52.116;5.286;2023-05-07T02:12:33;7.13;;;6.63;;
13816;SDS011;6979;52.116;5.286;2023-05-07T02:14:59;6.90;;;6.50;;
13816;SDS011;6979;52.116;5.286;2023-05-07T02:17:26;6.97;;;6.57;;
13816;SDS011;6979;52.116;5.286;2023-05-07T02:19:56;7.60;;;7.10;;
13816;SDS011;6979;52.116;5.286;2023-05-07T02:22:25;8.33;;;7.73;;
13816;SDS011;6979;52.116;5.286;2023-05-07T02:24:52;7.10;;;6.60;;
13816;SDS011;6979;52.116;5.286;2023-05-07T02:27:19;6.70;;;6.30;;
13816;SDS011;6979;52.116;5.286;2023-05-07T02:29:47;7.13;;;6.63;;
13816;SDS011;6979;52.116;5.286;2023-05-07T02:32:16;7.90;;;7.40;;
13816;SDS011;6979;52.116;5.286;2023-05-07T02:34:43;7.73;;;7.23;;
13816;SDS011;6979;52.116;5.286;2023-05-07T02:37:10;8.00;;;7.40;;
13816;SDS011;6979;52.116;5.286;2023-05-07T02:39:37;7.30;;;6.77;;
13816;SDS011;6979;52.116;5.286;2023-05-07T02:42:04;7.87;;;7.17;;
13816;SDS011;6979;52.116;5.286;2023-05-07T02:44:36;8.57;;;7.97;;
13816;SDS011;6979;52.116;5.286;2023-05-07T02:47:04;9.43;;;8.63;;
13816;SDS011;6979;52.116;5.286;2023-05-07T02:49:34;8.07;;;7.57;;
13816;SDS011;6979;52.116;5.286;2023-05-07T02:52:01;9.07;;;8.47;;
13816;SDS011;6979;52.116;5.286;2023-05-07T02:54:28;9.30;;;8.73;;
13816;SDS011;6979;52.116;5.286;2023-05-07T02:56:55;8.60;;;8.10;;
13816;SDS011;6979;52.116;5.286;2023-05-07T02:59:23;9.77;;;9.07;;
13816;SDS011;6979;52.116;5.286;2023-05-07T03:01:51;9.43;;;8.83;;
13816;SDS011;6979;52.116;5.286;2023-05-07T03:04:19;9.43;;;8.73;;
13816;SDS011;6979;52.116;5.286;2023-05-07T03:06:46;10.17;;;9.37;;
13816;SDS011;6979;52.116;5.286;2023-05-07T03:09:15;10.33;;;9.37;;
13816;SDS011;6979;52.116;5.286;2023-05-07T03:11:42;10.33;;;9.43;;
13816;SDS011;6979;52.116;5.286;2023-05-07T03:14:09;9.53;;;8.93;;
13816;SDS011;6979;52.116;5.286;2023-05-07T03:16:35;10.30;;;9.60;;
13816;SDS011;6979;52.116;5.286;2023-05-07T03:19:03;8.80;;;8.20;;
13816;SDS011;6979;52.116;5.286;2023-05-07T03:21:31;9.00;;;8.50;;
13816;SDS011;6979;52.116;5.286;2023-05-07T03:23:59;8.70;;;8.10;;
13816;SDS011;6979;52.116;5.286;2023-05-07T03:26:26;8.53;;;8.00;;
13816;SDS011;6979;52.116;5.286;2023-05-07T03:28:54;10.10;;;9.20;;
13816;SDS011;6979;52.116;5.286;2023-05-07T03:31:24;10.07;;;9.37;;
13816;SDS011;6979;52.116;5.286;2023-05-07T03:33:53;10.27;;;9.57;;
13816;SDS011;6979;52.116;5.286;2023-05-07T03:36:21;9.87;;;8.87;;
13816;SDS011;6979;52.116;5.286;2023-05-07T03:38:50;9.87;;;9.07;;
13816;SDS011;6979;52.116;5.286;2023-05-07T03:41:23;10.17;;;9.47;;
13816;SDS011;6979;52.116;5.286;2023-05-07T03:43:51;9.93;;;9.23;;
13816;SDS011;6979;52.116;5.286;2023-05-07T03:46:17;10.73;;;10.03;;
13816;SDS011;6979;52.116;5.286;2023-05-07T03:48:44;11.17;;;10.20;;
13816;SDS011;6979;52.116;5.286;2023-05-07T03:51:13;10.33;;;9.63;;
13816;SDS011;6979;52.116;5.286;2023-05-07T03:53:40;10.57;;;9.83;;
13816;SDS011;6979;52.116;5.286;2023-05-07T03:56:08;11.73;;;11.00;;
13816;SDS011;6979;52.116;5.286;2023-05-07T03:58:38;9.80;;;9.20;;
13816;SDS011;6979;52.116;5.286;2023-05-07T04:01:08;9.97;;;9.33;;
13816;SDS011;6979;52.116;5.286;2023-05-07T04:03:35;10.63;;;9.93;;
13816;SDS011;6979;52.116;5.286;2023-05-07T04:06:02;11.53;;;10.67;;
13816;SDS011;6979;52.116;5.286;2023-05-07T04:08:32;10.77;;;10.10;;
13816;SDS011;6979;52.116;5.286;2023-05-07T04:10:59;11.53;;;10.70;;
13816;SDS011;6979;52.116;5.286;2023-05-07T04:13:32;11.07;;;10.40;;
13816;SDS011;6979;52.116;5.286;2023-05-07T04:16:04;10.43;;;9.73;;
13816;SDS011;6979;52.116;5.286;2023-05-07T04:18:34;10.07;;;9.40;;
13816;SDS011;6979;52.116;5.286;2023-05-07T04:21:01;11.47;;;10.67;;
13816;SDS011;6979;52.116;5.286;2023-05-07T04:23:33;9.90;;;9.20;;
13816;SDS011;6979;52.116;5.286;2023-05-07T04:26:02;10.70;;;9.90;;
13816;SDS011;6979;52.116;5.286;2023-05-07T04:28:42;10.77;;;9.97;;
13816;SDS011;6979;52.116;5.286;2023-05-07T04:31:10;10.63;;;9.93;;
13816;SDS011;6979;52.116;5.286;2023-05-07T04:33:38;12.03;;;11.13;;
13816;SDS011;6979;52.116;5.286;2023-05-07T04:36:08;10.97;;;10.17;;
13816;SDS011;6979;52.116;5.286;2023-05-07T04:38:42;10.13;;;9.43;;
13816;SDS011;6979;52.116;5.286;2023-05-07T04:41:12;10.20;;;9.50;;
13816;SDS011;6979;52.116;5.286;2023-05-07T04:43:44;10.00;;;9.30;;
13816;SDS011;6979;52.116;5.286;2023-05-07T04:46:14;10.97;;;10.27;;
13816;SDS011;6979;52.116;5.286;2023-05-07T04:48:42;10.33;;;9.63;;
13816;SDS011;6979;52.116;5.286;2023-05-07T04:51:08;9.67;;;9.07;;
13816;SDS011;6979;52.116;5.286;2023-05-07T04:53:39;10.53;;;9.83;;
13816;SDS011;6979;52.116;5.286;2023-05-07T04:56:08;10.57;;;9.80;;
13816;SDS011;6979;52.116;5.286;2023-05-07T04:58:40;10.20;;;9.53;;
13816;SDS011;6979;52.116;5.286;2023-05-07T05:01:09;10.17;;;9.47;;
13816;SDS011;6979;52.116;5.286;2023-05-07T05:03:40;9.30;;;8.63;;
13816;SDS011;6979;52.116;5.286;2023-05-07T05:06:07;10.37;;;9.67;;
13816;SDS011;6979;52.116;5.286;2023-05-07T05:08:34;9.90;;;9.27;;
13816;SDS011;6979;52.116;5.286;2023-05-07T05:11:02;9.20;;;8.60;;
13816;SDS011;6979;52.116;5.286;2023-05-07T05:13:31;9.77;;;9.07;;
13816;SDS011;6979;52.116;5.286;2023-05-07T05:16:00;10.07;;;9.37;;
13816;SDS011;6979;52.116;5.286;2023-05-07T05:18:32;10.07;;;9.37;;
13816;SDS011;6979;52.116;5.286;2023-05-07T05:20:59;10.43;;;9.67;;
13816;SDS011;6979;52.116;5.286;2023-05-07T05:23:26;10.73;;;9.83;;
13816;SDS011;6979;52.116;5.286;2023-05-07T05:25:55;9.70;;;9.00;;
13816;SDS011;6979;52.116;5.286;2023-05-07T05:28:24;11.43;;;10.53;;
13816;SDS011;6979;52.116;5.286;2023-05-07T05:30:52;9.80;;;9.10;;
13816;SDS011;6979;52.116;5.286;2023-05-07T05:33:20;10.60;;;9.80;;
13816;SDS011;6979;52.116;5.286;2023-05-07T05:35:49;11.47;;;10.43;;
13816;SDS011;6979;52.116;5.286;2023-05-07T05:38:16;10.57;;;9.67;;
13816;SDS011;6979;52.116;5.286;2023-05-07T05:40:43;9.87;;;9.07;;
13816;SDS011;6979;52.116;5.286;2023-05-07T05:43:10;10.00;;;9.20;;
13816;SDS011;6979;52.116;5.286;2023-05-07T05:45:37;9.87;;;9.07;;
13816;SDS011;6979;52.116;5.286;2023-05-07T05:48:05;9.37;;;8.77;;
13816;SDS011;6979;52.116;5.286;2023-05-07T05:50:33;9.87;;;9.23;;
13816;SDS011;6979;52.116;5.286;2023-05-07T05:53:02;10.47;;;9.67;;
13816;SDS011;6979;52.116;5.286;2023-05-07T05:55:29;10.37;;;9.57;;
13816;SDS011;6979;52.116;5.286;2023-05-07T05:57:57;9.50;;;8.90;;
13816;SDS011;6979;52.116;5.286;2023-05-07T06:00:25;9.50;;;8.80;;
13816;SDS011;6979;52.116;5.286;2023-05-07T06:03:00;10.27;;;9.57;;
13816;SDS011;6979;52.116;5.286;2023-05-07T06:05:27;9.60;;;8.93;;
13816;SDS011;6979;52.116;5.286;2023-05-07T06:07:55;10.20;;;9.50;;
13816;SDS011;6979;52.116;5.286;2023-05-07T06:10:24;10.83;;;9.93;;
13816;SDS011;6979;52.116;5.286;2023-05-07T06:12:52;9.87;;;9.17;;
13816;SDS011;6979;52.116;5.286;2023-05-07T06:15:20;11.17;;;10.37;;
13816;SDS011;6979;52.116;5.286;2023-05-07T06:17:47;11.23;;;10.07;;
13816;SDS011;6979;52.116;5.286;2023-05-07T06:20:14;11.40;;;10.50;;
13816;SDS011;6979;52.116;5.286;2023-05-07T06:22:41;11.50;;;10.70;;
13816;SDS011;6979;52.116;5.286;2023-05-07T06:25:10;11.27;;;10.37;;
13816;SDS011;6979;52.116;5.286;2023-05-07T06:27:38;11.40;;;10.50;;
13816;SDS011;6979;52.116;5.286;2023-05-07T06:30:06;12.10;;;11.20;;
13816;SDS011;6979;52.116;5.286;2023-05-07T06:32:33;12.10;;;11.20;;
13816;SDS011;6979;52.116;5.286;2023-05-07T06:35:00;11.83;;;10.83;;
13816;SDS011;6979;52.116;5.286;2023-05-07T06:37:27;11.60;;;10.70;;
13816;SDS011;6979;52.116;5.286;2023-05-07T06:40:01;11.83;;;10.97;;
13816;SDS011;6979;52.116;5.286;2023-05-07T06:42:30;12.13;;;11.33;;
13816;SDS011;6979;52.116;5.286;2023-05-07T06:45:06;11.93;;;11.03;;
13816;SDS011;6979;52.116;5.286;2023-05-07T06:47:34;11.87;;;10.97;;
13816;SDS011;6979;52.116;5.286;2023-05-07T06:50:01;12.20;;;11.30;;
13816;SDS011;6979;52.116;5.286;2023-05-07T06:52:30;11.37;;;10.57;;
13816;SDS011;6979;52.116;5.286;2023-05-07T06:54:57;11.83;;;10.93;;
13816;SDS011;6979;52.116;5.286;2023-05-07T06:57:25;12.50;;;11.50;;
13816;SDS011;6979;52.116;5.286;2023-05-07T06:59:52;11.63;;;10.83;;
13816;SDS011;6979;52.116;5.286;2023-05-07T07:02:21;11.93;;;11.03;;
13816;SDS011;6979;52.116;5.286;2023-05-07T07:04:49;12.07;;;11.17;;
13816;SDS011;6979;52.116;5.286;2023-05-07T07:07:18;13.83;;;12.83;;
13816;SDS011;6979;52.116;5.286;2023-05-07T07:09:47;12.23;;;11.43;;
13816;SDS011;6979;52.116;5.286;2023-05-07T07:12:17;12.20;;;11.20;;
13816;SDS011;6979;52.116;5.286;2023-05-07T07:14:50;11.63;;;10.83;;
13816;SDS011;6979;52.116;5.286;2023-05-07T07:17:17;11.73;;;10.83;;
13816;SDS011;6979;52.116;5.286;2023-05-07T07:19:46;12.00;;;11.10;;
13816;SDS011;6979;52.116;5.286;2023-05-07T07:22:12;12.63;;;11.67;;
13816;SDS011;6979;52.116;5.286;2023-05-07T07:24:39;11.70;;;10.90;;
13816;SDS011;6979;52.116;5.286;2023-05-07T07:27:09;12.20;;;11.33;;
13816;SDS011;6979;52.116;5.286;2023-05-07T07:29:38;12.03;;;11.20;;
13816;SDS011;6979;52.116;5.286;2023-05-07T07:32:07;12.37;;;11.47;;
13816;SDS011;6979;52.116;5.286;2023-05-07T07:34:34;11.70;;;10.67;;
13816;SDS011;6979;52.116;5.286;2023-05-07T07:37:02;12.93;;;11.97;;
13816;SDS011;6979;52.116;5.286;2023-05-07T07:39:31;12.63;;;11.63;;
13816;SDS011;6979;52.116;5.286;2023-05-07T07:41:59;12.63;;;11.73;;
13816;SDS011;6979;52.116;5.286;2023-05-07T07:44:28;12.57;;;11.67;;
13816;SDS011;6979;52.116;5.286;2023-05-07T07:46:59;13.53;;;12.43;;
13816;SDS011;6979;52.116;5.286;2023-05-07T07:49:27;12.53;;;11.60;;
13816;SDS011;6979;52.116;5.286;2023-05-07T07:51:56;12.27;;;11.37;;
13816;SDS011;6979;52.116;5.286;2023-05-07T07:54:26;11.70;;;10.90;;
13816;SDS011;6979;52.116;5.286;2023-05-07T07:56:55;11.80;;;10.83;;
13816;SDS011;6979;52.116;5.286;2023-05-07T07:59:22;11.50;;;10.70;;
13816;SDS011;6979;52.116;5.286;2023-05-07T08:01:52;10.93;;;10.23;;
13816;SDS011;6979;52.116;5.286;2023-05-07T08:04:23;13.10;;;12.10;;
13816;SDS011;6979;52.116;5.286;2023-05-07T08:06:50;12.37;;;11.40;;
13816;SDS011;6979;52.116;5.286;2023-05-07T08:09:19;12.30;;;11.40;;
13816;SDS011;6979;52.116;5.286;2023-05-07T08:11:49;12.83;;;11.80;;
13816;SDS011;6979;52.116;5.286;2023-05-07T08:14:17;12.03;;;11.13;;
13816;SDS011;6979;52.116;5.286;2023-05-07T08:16:46;11.30;;;10.40;;
13816;SDS011;6979;52.116;5.286;2023-05-07T08:19:13;11.27;;;10.47;;
13816;SDS011;6979;52.116;5.286;2023-05-07T08:21:40;11.53;;;10.67;;
13816;SDS011;6979;52.116;5.286;2023-05-07T08:24:09;11.97;;;11.07;;
13816;SDS011;6979;52.116;5.286;2023-05-07T08:26:39;10.73;;;10.00;;
13816;SDS011;6979;52.116;5.286;2023-05-07T08:29:08;11.70;;;10.80;;
13816;SDS011;6979;52.116;5.286;2023-05-07T08:31:35;15.00;;;13.60;;
13816;SDS011;6979;52.116;5.286;2023-05-07T08:34:03;13.37;;;12.30;;
13816;SDS011;6979;52.116;5.286;2023-05-07T08:36:32;12.33;;;11.33;;
13816;SDS011;6979;52.116;5.286;2023-05-07T08:38:59;11.73;;;10.90;;
13816;SDS011;6979;52.116;5.286;2023-05-07T08:41:26;12.43;;;11.53;;
13816;SDS011;6979;52.116;5.286;2023-05-07T08:43:53;13.77;;;12.53;;
13816;SDS011;6979;52.116;5.286;2023-05-07T08:46:25;11.97;;;11.17;;
13816;SDS011;6979;52.116;5.286;2023-05-07T08:48:57;12.40;;;11.40;;
13816;SDS011;6979;52.116;5.286;2023-05-07T08:51:25;11.83;;;11.03;;
13816;SDS011;6979;52.116;5.286;2023-05-07T08:53:52;10.93;;;10.03;;
13816;SDS011;6979;52.116;5.286;2023-05-07T08:56:27;11.80;;;10.90;;
13816;SDS011;6979;52.116;5.286;2023-05-07T08:58:55;11.60;;;10.90;;
13816;SDS011;6979;52.116;5.286;2023-05-07T09:01:26;11.57;;;10.73;;
13816;SDS011;6979;52.116;5.286;2023-05-07T09:03:54;11.90;;;10.80;;
13816;SDS011;6979;52.116;5.286;2023-05-07T09:06:22;12.30;;;11.30;;
13816;SDS011;6979;52.116;5.286;2023-05-07T09:08:49;13.03;;;12.00;;
13816;SDS011;6979;52.116;5.286;2023-05-07T09:11:19;11.53;;;10.77;;
13816;SDS011;6979;52.116;5.286;2023-05-07T09:13:47;12.10;;;11.20;;
13816;SDS011;6979;52.116;5.286;2023-05-07T09:16:15;10.77;;;10.07;;
13816;SDS011;6979;52.116;5.286;2023-05-07T09:18:45;11.63;;;10.83;;
13816;SDS011;6979;52.116;5.286;2023-05-07T09:21:14;11.83;;;10.93;;
13816;SDS011;6979;52.116;5.286;2023-05-07T09:23:42;11.57;;;10.67;;
13816;SDS011;6979;52.116;5.286;2023-05-07T09:26:09;10.60;;;9.90;;
13816;SDS011;6979;52.116;5.286;2023-05-07T09:28:39;9.63;;;8.93;;
13816;SDS011;6979;52.116;5.286;2023-05-07T09:31:08;9.23;;;8.60;;
13816;SDS011;6979;52.116;5.286;2023-05-07T09:33:36;8.10;;;7.50;;
13816;SDS011;6979;52.116;5.286;2023-05-07T09:36:05;7.80;;;7.10;;
13816;SDS011;6979;52.116;5.286;2023-05-07T09:38:35;6.77;;;6.27;;
13816;SDS011;6979;52.116;5.286;2023-05-07T09:41:03;5.77;;;5.37;;
13816;SDS011;6979;52.116;5.286;2023-05-07T09:43:35;5.80;;;5.40;;
13816;SDS011;6979;52.116;5.286;2023-05-07T09:46:06;5.20;;;4.80;;
13816;SDS011;6979;52.116;5.286;2023-05-07T09:48:35;6.03;;;5.63;;
13816;SDS011;6979;52.116;5.286;2023-05-07T09:51:09;6.90;;;6.30;;
13816;SDS011;6979;52.116;5.286;2023-05-07T09:53:43;8.10;;;7.60;;
13816;SDS011;6979;52.116;5.286;2023-05-07T09:56:13;8.40;;;7.70;;
13816;SDS011;6979;52.116;5.286;2023-05-07T09:58:41;6.63;;;6.10;;
13816;SDS011;6979;52.116;5.286;2023-05-07T10:01:10;6.03;;;5.63;;
13816;SDS011;6979;52.116;5.286;2023-05-07T10:03:40;6.30;;;5.90;;
13816;SDS011;6979;52.116;5.286;2023-05-07T10:06:10;6.40;;;5.90;;
13816;SDS011;6979;52.116;5.286;2023-05-07T10:08:39;5.43;;;5.03;;
13816;SDS011;6979;52.116;5.286;2023-05-07T10:11:07;7.00;;;6.50;;
13816;SDS011;6979;52.116;5.286;2023-05-07T10:13:36;5.70;;;5.33;;
13816;SDS011;6979;52.116;5.286;2023-05-07T10:16:06;6.60;;;6.10;;
13816;SDS011;6979;52.116;5.286;2023-05-07T10:18:40;6.73;;;6.33;;
13816;SDS011;6979;52.116;5.286;2023-05-07T10:21:16;8.97;;;6.80;;
13816;SDS011;6979;52.116;5.286;2023-05-07T10:23:51;5.97;;;5.57;;
13816;SDS011;6979;52.116;5.286;2023-05-07T10:26:24;6.73;;;6.23;;
13816;SDS011;6979;52.116;5.286;2023-05-07T10:28:54;7.33;;;6.73;;
13816;SDS011;6979;52.116;5.286;2023-05-07T10:31:31;6.80;;;6.30;;
13816;SDS011;6979;52.116;5.286;2023-05-07T10:34:13;7.73;;;7.13;;
13816;SDS011;6979;52.116;5.286;2023-05-07T10:36:45;6.90;;;6.40;;
13816;SDS011;6979;52.116;5.286;2023-05-07T10:39:14;6.77;;;6.27;;
13816;SDS011;6979;52.116;5.286;2023-05-07T10:41:41;6.80;;;6.20;;
13816;SDS011;6979;52.116;5.286;2023-05-07T10:44:09;7.07;;;6.57;;
13816;SDS011;6979;52.116;5.286;2023-05-07T10:46:36;7.43;;;6.93;;
13816;SDS011;6979;52.116;5.286;2023-05-07T10:49:17;7.63;;;7.03;;
13816;SDS011;6979;52.116;5.286;2023-05-07T10:52:15;7.63;;;7.13;;
13816;SDS011;6979;52.116;5.286;2023-05-07T10:55:18;7.60;;;7.00;;
13816;SDS011;6979;52.116;5.286;2023-05-07T10:57:57;7.50;;;7.00;;
13816;SDS011;6979;52.116;5.286;2023-05-07T11:00:55;6.60;;;6.10;;
13816;SDS011;6979;52.116;5.286;2023-05-07T11:03:27;6.97;;;6.47;;
13816;SDS011;6979;52.116;5.286;2023-05-07T11:06:09;6.50;;;6.10;;
13816;SDS011;6979;52.116;5.286;2023-05-07T11:08:54;7.57;;;7.13;;
13816;SDS011;6979;52.116;5.286;2023-05-07T11:11:44;7.80;;;7.30;;
13816;SDS011;6979;52.116;5.286;2023-05-07T11:17:22;7.30;;;6.70;;
13816;SDS011;6979;52.116;5.286;2023-05-07T11:19:58;7.30;;;6.80;;
13816;SDS011;6979;52.116;5.286;2023-05-07T11:22:38;7.93;;;7.43;;
13816;SDS011;6979;52.116;5.286;2023-05-07T11:25:33;7.13;;;6.67;;
13816;SDS011;6979;52.116;5.286;2023-05-07T11:28:20;8.33;;;7.73;;
13816;SDS011;6979;52.116;5.286;2023-05-07T11:30:57;8.30;;;7.77;;
13816;SDS011;6979;52.116;5.286;2023-05-07T11:33:25;7.53;;;7.03;;
13816;SDS011;6979;52.116;5.286;2023-05-07T11:35:54;7.80;;;7.23;;
13816;SDS011;6979;52.116;5.286;2023-05-07T11:38:27;8.07;;;7.37;;
13816;SDS011;6979;52.116;5.286;2023-05-07T11:40:57;8.03;;;7.53;;
13816;SDS011;6979;52.116;5.286;2023-05-07T11:43:25;8.10;;;7.50;;
13816;SDS011;6979;52.116;5.286;2023-05-07T11:45:52;7.83;;;7.23;;
13816;SDS011;6979;52.116;5.286;2023-05-07T11:48:22;8.23;;;7.73;;
13816;SDS011;6979;52.116;5.286;2023-05-07T11:50:50;7.67;;;7.17;;
13816;SDS011;6979;52.116;5.286;2023-05-07T11:53:17;8.33;;;7.63;;
13816;SDS011;6979;52.116;5.286;2023-05-07T11:55:45;6.60;;;6.17;;
13816;SDS011;6979;52.116;5.286;2023-05-07T11:58:18;7.60;;;7.10;;
13816;SDS011;6979;52.116;5.286;2023-05-07T12:00:48;7.50;;;6.93;;
13816;SDS011;6979;52.116;5.286;2023-05-07T12:03:15;7.80;;;7.27;;
13816;SDS011;6979;52.116;5.286;2023-05-07T12:05:42;8.83;;;8.20;;
13816;SDS011;6979;52.116;5.286;2023-05-07T12:08:13;8.33;;;7.63;;
13816;SDS011;6979;52.116;5.286;2023-05-07T12:10:40;9.23;;;8.50;;
13816;SDS011;6979;52.116;5.286;2023-05-07T12:13:15;8.80;;;8.10;;
13816;SDS011;6979;52.116;5.286;2023-05-07T12:15:42;10.17;;;9.47;;
13816;SDS011;6979;52.116;5.286;2023-05-07T12:18:09;8.87;;;8.27;;
13816;SDS011;6979;52.116;5.286;2023-05-07T12:20:38;8.10;;;7.47;;
13816;SDS011;6979;52.116;5.286;2023-05-07T12:23:06;7.80;;;7.20;;
13816;SDS011;6979;52.116;5.286;2023-05-07T12:25:34;7.53;;;7.03;;
13816;SDS011;6979;52.116;5.286;2023-05-07T12:28:01;8.73;;;8.20;;
13816;SDS011;6979;52.116;5.286;2023-05-07T12:30:31;9.83;;;9.13;;
13816;SDS011;6979;52.116;5.286;2023-05-07T12:32:58;9.03;;;8.43;;
13816;SDS011;6979;52.116;5.286;2023-05-07T12:35:28;9.43;;;8.83;;
13816;SDS011;6979;52.116;5.286;2023-05-07T12:37:55;10.10;;;9.40;;
13816;SDS011;6979;52.116;5.286;2023-05-07T12:40:24;8.87;;;8.17;;
13816;SDS011;6979;52.116;5.286;2023-05-07T12:42:52;8.60;;;8.00;;
13816;SDS011;6979;52.116;5.286;2023-05-07T12:45:20;9.43;;;8.63;;
13816;SDS011;6979;52.116;5.286;2023-05-07T12:47:48;8.63;;;8.03;;
13816;SDS011;6979;52.116;5.286;2023-05-07T12:50:15;8.43;;;7.83;;
13816;SDS011;6979;52.116;5.286;2023-05-07T12:52:42;7.97;;;7.47;;
13816;SDS011;6979;52.116;5.286;2023-05-07T12:55:12;8.40;;;7.80;;
13816;SDS011;6979;52.116;5.286;2023-05-07T12:57:40;8.20;;;7.60;;
13816;SDS011;6979;52.116;5.286;2023-05-07T13:00:08;8.17;;;7.57;;
13816;SDS011;6979;52.116;5.286;2023-05-07T13:02:37;9.17;;;8.57;;
13816;SDS011;6979;52.116;5.286;2023-05-07T13:05:07;7.87;;;7.17;;
13816;SDS011;6979;52.116;5.286;2023-05-07T13:07:36;8.80;;;8.10;;
13816;SDS011;6979;52.116;5.286;2023-05-07T13:10:03;8.63;;;8.03;;
13816;SDS011;6979;52.116;5.286;2023-05-07T13:12:31;7.20;;;6.70;;
13816;SDS011;6979;52.116;5.286;2023-05-07T13:14:58;7.40;;;6.80;;
13816;SDS011;6979;52.116;5.286;2023-05-07T13:17:25;7.50;;;7.03;;
13816;SDS011;6979;52.116;5.286;2023-05-07T13:19:51;8.40;;;7.80;;
13816;SDS011;6979;52.116;5.286;2023-05-07T13:22:20;7.87;;;7.33;;
13816;SDS011;6979;52.116;5.286;2023-05-07T13:24:46;6.83;;;6.33;;
13816;SDS011;6979;52.116;5.286;2023-05-07T13:27:13;6.17;;;5.63;;
13816;SDS011;6979;52.116;5.286;2023-05-07T13:29:40;5.87;;;5.47;;
13816;SDS011;6979;52.116;5.286;2023-05-07T13:32:07;4.20;;;3.90;;
13816;SDS011;6979;52.116;5.286;2023-05-07T13:34:34;4.07;;;3.77;;
13816;SDS011;6979;52.116;5.286;2023-05-07T13:37:02;3.43;;;3.23;;
13816;SDS011;6979;52.116;5.286;2023-05-07T13:39:30;4.10;;;3.73;;
13816;SDS011;6979;52.116;5.286;2023-05-07T13:41:57;4.93;;;3.37;;
13816;SDS011;6979;52.116;5.286;2023-05-07T13:44:23;3.57;;;3.27;;
13816;SDS011;6979;52.116;5.286;2023-05-07T13:46:50;3.40;;;3.10;;
13816;SDS011;6979;52.116;5.286;2023-05-07T13:49:17;3.90;;;3.07;;
13816;SDS011;6979;52.116;5.286;2023-05-07T13:51:44;3.90;;;3.60;;
13816;SDS011;6979;52.116;5.286;2023-05-07T13:54:13;4.00;;;3.70;;
13816;SDS011;6979;52.116;5.286;2023-05-07T13:56:42;3.77;;;3.50;;
13816;SDS011;6979;52.116;5.286;2023-05-07T13:59:13;4.17;;;3.87;;
13816;SDS011;6979;52.116;5.286;2023-05-07T14:01:40;4.00;;;3.63;;
13816;SDS011;6979;52.116;5.286;2023-05-07T14:04:08;3.60;;;3.30;;
13816;SDS011;6979;52.116;5.286;2023-05-07T14:06:36;3.97;;;3.67;;
13816;SDS011;6979;52.116;5.286;2023-05-07T14:09:04;4.40;;;4.00;;
13816;SDS011;6979;52.116;5.286;2023-05-07T14:11:30;5.63;;;3.47;;
13816;SDS011;6979;52.116;5.286;2023-05-07T14:13:59;3.83;;;3.53;;
13816;SDS011;6979;52.116;5.286;2023-05-07T14:16:25;3.73;;;3.47;;
13816;SDS011;6979;52.116;5.286;2023-05-07T14:18:52;3.93;;;3.63;;
13816;SDS011;6979;52.116;5.286;2023-05-07T14:21:19;5.20;;;4.80;;
13816;SDS011;6979;52.116;5.286;2023-05-07T14:23:49;5.50;;;5.10;;
13816;SDS011;6979;52.116;5.286;2023-05-07T14:26:16;6.47;;;5.97;;
13816;SDS011;6979;52.116;5.286;2023-05-07T14:28:43;7.10;;;6.60;;
13816;SDS011;6979;52.116;5.286;2023-05-07T14:31:12;7.53;;;7.03;;
13816;SDS011;6979;52.116;5.286;2023-05-07T14:33:39;7.23;;;6.60;;
13816;SDS011;6979;52.116;5.286;2023-05-07T14:36:06;7.83;;;7.13;;
13816;SDS011;6979;52.116;5.286;2023-05-07T14:38:33;8.03;;;7.47;;
13816;SDS011;6979;52.116;5.286;2023-05-07T14:41:02;8.73;;;8.13;;
13816;SDS011;6979;52.116;5.286;2023-05-07T14:43:29;7.97;;;7.37;;
13816;SDS011;6979;52.116;5.286;2023-05-07T14:45:56;8.37;;;7.87;;
13816;SDS011;6979;52.116;5.286;2023-05-07T14:48:27;7.57;;;6.97;;
13816;SDS011;6979;52.116;5.286;2023-05-07T14:50:54;8.70;;;7.80;;
13816;SDS011;6979;52.116;5.286;2023-05-07T14:53:21;7.67;;;7.07;;
13816;SDS011;6979;52.116;5.286;2023-05-07T14:55:48;7.00;;;6.50;;
13816;SDS011;6979;52.116;5.286;2023-05-07T14:58:15;8.20;;;7.70;;
13816;SDS011;6979;52.116;5.286;2023-05-07T15:00:42;9.47;;;8.70;;
13816;SDS011;6979;52.116;5.286;2023-05-07T15:03:09;9.80;;;8.90;;
13816;SDS011;6979;52.116;5.286;2023-05-07T15:05:41;9.93;;;9.23;;
13816;SDS011;6979;52.116;5.286;2023-05-07T15:08:08;8.63;;;7.97;;